createdAt,value
2022-12-18T00:01:30.600Z,38.85
2022-12-18T00:03:59.060Z,49.97
2022-12-18T00:06:29.237Z,47.83
2022-12-18T00:08:58.047Z,45.90
2022-12-18T00:11:28.304Z,47.22
2022-12-18T00:13:57.740Z,42.15
2022-12-18T00:16:27.038Z,45.97
2022-12-18T00:18:56.684Z,48.85
2022-12-18T00:21:25.173Z,48.40
2022-12-18T00:23:53.111Z,50.92
2022-12-18T00:26:25.584Z,53.33
2022-12-18T00:29:01.067Z,54.88
2022-12-18T00:31:30.689Z,59.38
2022-12-18T00:33:58.579Z,54.15
2022-12-18T00:36:29.257Z,51.65
2022-12-18T00:38:58.045Z,43.87
2022-12-18T00:41:44.678Z,42.55
2022-12-18T00:44:14.371Z,37.88
2022-12-18T00:46:42.335Z,39.08
2022-12-18T00:49:09.831Z,43.65
2022-12-18T00:51:40.078Z,44.83
2022-12-18T00:54:07.412Z,43.25
2022-12-18T00:56:48.023Z,45.20
2022-12-18T00:59:17.617Z,42.85
2022-12-18T01:01:45.949Z,43.05
2022-12-18T01:04:13.588Z,42.53
2022-12-18T01:06:41.349Z,42.20
2022-12-18T01:09:08.580Z,42.67
2022-12-18T01:11:37.813Z,45.97
2022-12-18T01:14:05.778Z,29.60
2022-12-18T01:16:33.210Z,26.50
2022-12-18T01:19:00.507Z,29.83
2022-12-18T01:21:29.053Z,26.80
2022-12-18T01:23:57.101Z,26.35
2022-12-18T01:26:26.247Z,25.33
2022-12-18T01:28:55.566Z,26.50
2022-12-18T01:31:29.937Z,33.83
2022-12-18T01:33:58.596Z,32.33
2022-12-18T01:36:28.674Z,34.80
2022-12-18T01:38:57.116Z,40.15
2022-12-18T01:41:27.184Z,40.42
2022-12-18T01:43:58.000Z,42.30
2022-12-18T01:46:26.809Z,42.70
2022-12-18T01:51:31.035Z,40.30
2022-12-18T01:54:00.246Z,41.47
2022-12-18T01:56:27.712Z,39.65
2022-12-18T01:59:08.664Z,40.42
2022-12-18T02:01:37.297Z,41.25
2022-12-18T02:04:23.870Z,39.88
2022-12-18T02:07:07.428Z,38.60
2022-12-18T02:09:51.447Z,36.22
2022-12-18T02:12:25.080Z,38.97
2022-12-18T02:15:23.145Z,40.88
2022-12-18T02:17:57.907Z,38.80
2022-12-18T02:20:37.661Z,39.58
2022-12-18T02:23:13.856Z,40.15
2022-12-18T02:25:59.972Z,37.53
2022-12-18T02:28:32.962Z,33.28
2022-12-18T02:31:07.440Z,35.22
2022-12-18T02:33:37.435Z,34.85
2022-12-18T02:36:06.818Z,34.22
2022-12-18T02:38:36.061Z,32.70
2022-12-18T02:41:10.530Z,33.72
2022-12-18T02:43:38.314Z,33.22
2022-12-18T02:46:45.010Z,32.72
2022-12-18T02:49:24.474Z,31.98
2022-12-18T02:52:32.830Z,32.58
2022-12-18T02:55:27.420Z,30.75
2022-12-18T02:58:03.441Z,33.40
2022-12-18T03:01:00.527Z,30.00
2022-12-18T03:03:56.479Z,29.88
2022-12-18T03:06:49.529Z,31.38
2022-12-18T03:09:23.170Z,30.58
2022-12-18T03:12:16.547Z,30.80
2022-12-18T03:14:46.264Z,27.88
2022-12-18T03:19:47.156Z,27.02
2022-12-18T03:22:17.424Z,28.42
2022-12-18T03:24:50.206Z,28.52
2022-12-18T03:27:21.865Z,28.30
2022-12-18T03:30:13.345Z,27.25
2022-12-18T03:33:02.677Z,27.55
2022-12-18T03:35:36.126Z,26.15
2022-12-18T03:38:06.076Z,28.35
2022-12-18T03:41:02.169Z,27.08
2022-12-18T03:43:50.293Z,25.38
2022-12-18T03:46:29.665Z,27.35
2022-12-18T03:49:12.627Z,25.30
2022-12-18T03:51:48.812Z,25.83
2022-12-18T03:54:17.480Z,24.55
2022-12-18T03:57:04.000Z,26.92
2022-12-18T03:59:32.551Z,25.65
2022-12-18T04:02:02.247Z,24.73
2022-12-18T04:04:32.087Z,25.38
2022-12-18T04:07:03.818Z,25.75
2022-12-18T04:09:34.990Z,26.35
2022-12-18T04:12:02.429Z,24.45
2022-12-18T04:14:30.635Z,24.17
2022-12-18T04:16:58.136Z,25.10
2022-12-18T04:19:30.934Z,25.33
2022-12-18T04:21:59.845Z,25.00
2022-12-18T04:24:28.007Z,24.63
2022-12-18T04:27:05.845Z,23.02
2022-12-18T04:29:40.291Z,24.13
2022-12-18T04:32:08.075Z,25.17
2022-12-18T04:34:35.548Z,25.65
2022-12-18T04:37:03.144Z,23.52
2022-12-18T04:39:31.488Z,22.38
2022-12-18T04:42:04.382Z,23.88
2022-12-18T04:44:31.651Z,24.55
2022-12-18T04:46:58.889Z,23.77
2022-12-18T04:49:26.277Z,22.33
2022-12-18T04:51:54.754Z,21.30
2022-12-18T04:54:22.567Z,23.85
2022-12-18T04:56:49.831Z,22.38
2022-12-18T04:59:17.077Z,24.02
2022-12-18T05:01:44.501Z,21.45
2022-12-18T05:04:11.959Z,21.50
2022-12-18T05:06:39.275Z,23.08
2022-12-18T05:09:06.480Z,21.77
2022-12-18T05:11:33.791Z,21.65
2022-12-18T05:14:00.975Z,22.02
2022-12-18T05:16:28.244Z,21.40
2022-12-18T05:18:55.536Z,21.80
2022-12-18T05:21:22.797Z,20.25
2022-12-18T05:23:50.238Z,21.08
2022-12-18T05:26:19.031Z,22.23
2022-12-18T05:28:47.185Z,21.35
2022-12-18T05:31:14.889Z,21.42
2022-12-18T05:33:42.810Z,22.27
2022-12-18T05:36:11.435Z,20.92
2022-12-18T05:38:40.310Z,21.27
2022-12-18T05:41:08.500Z,22.63
2022-12-18T05:43:38.449Z,21.10
2022-12-18T05:46:13.268Z,23.10
2022-12-18T05:48:40.642Z,22.65
2022-12-18T05:51:13.407Z,22.88
2022-12-18T05:53:40.928Z,22.40
2022-12-18T05:56:13.943Z,22.10
2022-12-18T05:58:41.391Z,21.27
2022-12-18T06:01:19.375Z,22.30
2022-12-18T06:03:47.325Z,22.45
2022-12-18T06:06:20.764Z,21.70
2022-12-18T06:08:48.124Z,22.88
2022-12-18T06:11:19.892Z,20.92
2022-12-18T06:13:47.809Z,21.95
2022-12-18T06:16:15.113Z,22.40
2022-12-18T06:18:42.946Z,21.73
2022-12-18T06:21:10.257Z,21.55
2022-12-18T06:23:37.882Z,21.17
2022-12-18T06:26:10.286Z,21.30
2022-12-18T06:28:37.554Z,21.00
2022-12-18T06:31:05.980Z,21.63
2022-12-18T06:33:33.875Z,20.23
2022-12-18T06:36:03.097Z,19.80
2022-12-18T06:38:30.311Z,21.17
2022-12-18T06:40:57.645Z,20.02
2022-12-18T06:43:25.404Z,21.23
2022-12-18T06:45:54.059Z,20.95
2022-12-18T06:48:21.447Z,21.58
2022-12-18T06:50:48.986Z,21.50
2022-12-18T06:53:16.188Z,20.27
2022-12-18T06:55:44.015Z,21.55
2022-12-18T06:58:11.212Z,21.98
2022-12-18T07:00:39.097Z,19.73
2022-12-18T07:03:06.419Z,21.15
2022-12-18T07:05:33.900Z,21.10
2022-12-18T07:08:01.425Z,20.27
2022-12-18T07:10:28.658Z,19.23
2022-12-18T07:12:55.871Z,20.48
2022-12-18T07:15:23.102Z,20.48
2022-12-18T07:17:50.459Z,20.10
2022-12-18T07:20:17.822Z,21.58
2022-12-18T07:22:45.044Z,21.45
2022-12-18T07:25:12.260Z,20.05
2022-12-18T07:27:39.464Z,21.60
2022-12-18T07:30:07.512Z,20.55
2022-12-18T07:32:35.444Z,20.60
2022-12-18T07:35:02.773Z,20.83
2022-12-18T07:37:30.014Z,21.63
2022-12-18T07:39:57.304Z,21.17
2022-12-18T07:42:33.322Z,20.48
2022-12-18T07:45:01.530Z,21.05
2022-12-18T07:47:33.009Z,22.15
2022-12-18T07:50:00.282Z,20.48
2022-12-18T07:52:27.654Z,20.85
2022-12-18T07:54:54.934Z,20.23
2022-12-18T07:57:48.844Z,19.42
2022-12-18T08:00:10.060Z,21.77
2022-12-18T08:02:40.503Z,17.47
2022-12-18T08:05:10.019Z,21.30
2022-12-18T08:07:37.419Z,19.63
2022-12-18T08:10:05.178Z,20.58
2022-12-18T08:12:33.824Z,21.60
2022-12-18T08:15:01.050Z,21.25
2022-12-18T08:17:28.332Z,21.52
2022-12-18T08:19:55.808Z,22.40
2022-12-18T08:22:23.123Z,22.00
2022-12-18T08:24:50.444Z,21.02
2022-12-18T08:27:33.005Z,21.55
2022-12-18T08:30:00.491Z,20.40
2022-12-18T08:32:29.237Z,19.92
2022-12-18T08:34:56.598Z,20.65
2022-12-18T08:37:23.929Z,23.13
2022-12-18T08:39:51.298Z,20.83
2022-12-18T08:42:37.227Z,19.95
2022-12-18T08:45:05.290Z,19.58
2022-12-18T08:47:32.580Z,20.27
2022-12-18T08:49:59.873Z,22.13
2022-12-18T08:52:27.120Z,21.25
2022-12-18T08:54:54.490Z,21.17
2022-12-18T08:57:21.801Z,22.30
2022-12-18T08:59:49.442Z,20.75
2022-12-18T09:02:16.800Z,21.95
2022-12-18T09:04:45.607Z,19.85
2022-12-18T09:07:14.107Z,19.25
2022-12-18T09:09:41.409Z,22.33
2022-12-18T09:12:08.691Z,20.77
2022-12-18T09:14:36.749Z,21.02
2022-12-18T09:17:04.012Z,20.65
2022-12-18T09:19:31.435Z,22.67
2022-12-18T09:21:58.725Z,21.20
2022-12-18T09:24:25.984Z,19.48
2022-12-18T09:26:58.049Z,19.23
2022-12-18T09:29:25.504Z,20.02
2022-12-18T09:31:52.845Z,19.95
2022-12-18T09:34:22.085Z,20.38
2022-12-18T09:36:49.996Z,17.08
2022-12-18T09:39:19.064Z,18.75
2022-12-18T09:41:59.624Z,19.25
2022-12-18T09:44:45.292Z,19.63
2022-12-18T09:47:20.845Z,19.58
2022-12-18T09:49:59.218Z,18.75
2022-12-18T09:52:33.635Z,19.02
2022-12-18T09:55:12.344Z,19.33
2022-12-18T09:57:48.856Z,20.08
2022-12-18T10:00:26.620Z,19.10
2022-12-18T10:03:00.655Z,20.35
2022-12-18T10:05:56.080Z,20.45
2022-12-18T10:09:16.856Z,20.65
2022-12-18T10:11:46.874Z,19.75
2022-12-18T10:14:41.744Z,21.63
2022-12-18T10:17:33.180Z,21.10
2022-12-18T10:20:32.414Z,19.23
2022-12-18T10:23:18.599Z,17.58
2022-12-18T10:26:04.826Z,17.05
2022-12-18T10:28:34.760Z,18.15
2022-12-18T10:31:02.119Z,17.98
2022-12-18T10:33:31.545Z,17.80
2022-12-18T10:35:58.938Z,16.50
2022-12-18T10:38:31.713Z,16.98
2022-12-18T10:41:00.197Z,17.38
2022-12-18T10:43:34.210Z,17.80
2022-12-18T10:46:10.614Z,17.10
2022-12-18T10:48:48.458Z,18.52
2022-12-18T10:51:31.943Z,18.83
2022-12-18T10:54:04.532Z,18.77
2022-12-18T10:56:38.713Z,21.08
2022-12-18T10:59:09.091Z,20.77
2022-12-18T11:01:59.782Z,19.08
2022-12-18T11:04:30.089Z,19.17
2022-12-18T11:07:04.089Z,19.20
2022-12-18T11:09:36.408Z,19.90
2022-12-18T11:12:17.981Z,18.33
2022-12-18T11:14:51.965Z,20.63
2022-12-18T11:17:28.992Z,17.83
2022-12-18T11:20:01.699Z,18.83
2022-12-18T11:22:37.421Z,18.05
2022-12-18T11:25:35.350Z,20.60
2022-12-18T11:28:06.335Z,17.90
2022-12-18T11:30:36.613Z,20.75
2022-12-18T11:33:04.128Z,18.35
2022-12-18T11:35:38.572Z,21.17
2022-12-18T11:38:25.119Z,19.10
2022-12-18T11:41:04.221Z,19.15
2022-12-18T11:43:46.337Z,17.40
2022-12-18T11:49:23.702Z,16.67
2022-12-18T11:52:17.543Z,17.40
2022-12-18T11:54:44.945Z,21.33
2022-12-18T11:57:35.130Z,19.70
2022-12-18T12:00:14.417Z,18.42
2022-12-18T12:02:59.632Z,18.15
2022-12-18T12:05:42.423Z,17.88
2022-12-18T12:08:24.454Z,18.58
2022-12-18T12:11:18.966Z,21.05
2022-12-18T12:14:13.553Z,19.45
2022-12-18T12:16:46.617Z,18.75
2022-12-18T12:19:40.565Z,17.27
2022-12-18T12:22:20.000Z,17.45
2022-12-18T12:25:16.290Z,19.95
2022-12-18T12:28:22.776Z,18.98
2022-12-18T12:31:31.699Z,18.40
2022-12-18T12:34:39.855Z,17.63
2022-12-18T12:37:24.806Z,19.98
2022-12-18T12:39:53.920Z,21.48
2022-12-18T12:42:45.760Z,23.33
2022-12-18T12:45:22.805Z,22.88
2022-12-18T12:47:51.713Z,23.70
2022-12-18T12:50:21.280Z,22.33
2022-12-18T12:52:55.763Z,21.88
2022-12-18T12:55:28.788Z,20.83
2022-12-18T12:58:17.976Z,21.80
2022-12-18T13:00:58.296Z,18.98
2022-12-18T13:03:35.391Z,20.55
2022-12-18T13:06:13.932Z,20.70
2022-12-18T13:09:02.064Z,19.02
2022-12-18T13:12:03.728Z,17.75
2022-12-18T13:14:33.142Z,18.77
2022-12-18T13:17:22.193Z,19.08
2022-12-18T13:20:11.053Z,21.33
2022-12-18T13:22:40.269Z,19.17
2022-12-18T13:25:29.700Z,16.88
2022-12-18T13:27:59.987Z,18.77
2022-12-18T13:30:33.381Z,18.70
2022-12-18T13:33:16.296Z,17.33
2022-12-18T13:35:54.709Z,18.20
2022-12-18T13:38:39.762Z,17.73
2022-12-18T13:41:19.676Z,17.95
2022-12-18T13:43:48.876Z,19.92
2022-12-18T13:46:22.556Z,20.83
2022-12-18T13:49:12.991Z,17.70
2022-12-18T13:51:47.815Z,22.65
2022-12-18T13:54:40.573Z,20.75
2022-12-18T13:57:26.710Z,17.52
2022-12-18T13:59:54.085Z,18.05
2022-12-18T14:02:29.821Z,17.08
2022-12-18T14:04:57.625Z,17.40
2022-12-18T14:07:27.414Z,17.50
2022-12-18T14:10:26.037Z,18.27
2022-12-18T14:12:57.831Z,17.45
2022-12-18T14:15:27.711Z,18.42
2022-12-18T14:18:20.147Z,20.45
2022-12-18T14:20:52.661Z,17.38
2022-12-18T14:23:37.048Z,18.40
2022-12-18T14:26:24.883Z,18.30
2022-12-18T14:28:52.391Z,18.67
2022-12-18T14:31:27.600Z,21.33
2022-12-18T14:33:55.511Z,22.23
2022-12-18T14:36:25.737Z,21.45
2022-12-18T14:38:58.820Z,19.75
2022-12-18T14:41:27.310Z,19.30
2022-12-18T14:43:55.705Z,19.08
2022-12-18T14:46:38.767Z,19.55
2022-12-18T14:49:22.454Z,19.95
2022-12-18T14:51:53.132Z,20.38
2022-12-18T14:54:22.074Z,28.55
2022-12-18T14:57:15.327Z,28.23
2022-12-18T14:59:42.691Z,23.88
2022-12-18T15:02:24.443Z,20.75
2022-12-18T15:07:51.646Z,19.73
2022-12-18T15:10:23.697Z,20.63
2022-12-18T15:15:40.653Z,18.98
2022-12-18T15:18:13.792Z,22.77
2022-12-18T15:20:50.336Z,22.27
2022-12-18T15:23:22.865Z,22.85
2022-12-18T15:26:02.606Z,22.75
2022-12-18T15:28:38.010Z,24.48
2022-12-18T15:31:31.462Z,22.90
2022-12-18T15:34:00.364Z,22.45
2022-12-18T15:36:28.928Z,19.90
2022-12-18T15:39:04.594Z,21.75
2022-12-18T15:41:36.146Z,22.73
2022-12-18T15:44:04.790Z,22.33
2022-12-18T15:46:32.466Z,21.17
2022-12-18T15:49:02.621Z,23.15
2022-12-18T15:51:36.600Z,20.35
2022-12-18T15:54:07.231Z,20.83
2022-12-18T15:56:53.295Z,21.38
2022-12-18T15:59:21.835Z,21.02
2022-12-18T16:01:51.743Z,22.30
2022-12-18T16:04:21.719Z,22.73
2022-12-18T16:09:40.211Z,20.07
2022-12-18T16:12:15.243Z,19.05
2022-12-18T16:14:42.749Z,19.92
2022-12-18T16:17:12.868Z,20.58
2022-12-18T16:19:40.228Z,22.70
2022-12-18T16:22:15.986Z,22.83
2022-12-18T16:24:44.530Z,20.25
2022-12-18T16:27:11.799Z,19.55
2022-12-18T16:29:39.128Z,20.63
2022-12-18T16:32:06.473Z,21.08
2022-12-18T16:34:36.166Z,21.35
2022-12-18T16:37:06.663Z,19.80
2022-12-18T16:39:35.791Z,20.75
2022-12-18T16:42:15.563Z,20.02
2022-12-18T16:44:43.967Z,20.67
2022-12-18T16:47:13.297Z,21.00
2022-12-18T16:49:43.549Z,22.60
2022-12-18T16:52:10.832Z,22.25
2022-12-18T16:54:38.157Z,22.10
2022-12-18T16:57:05.628Z,21.27
2022-12-18T16:59:33.478Z,22.20
2022-12-18T17:02:02.100Z,22.65
2022-12-18T17:04:29.449Z,22.40
2022-12-18T17:06:57.184Z,22.15
2022-12-18T17:09:27.161Z,20.20
2022-12-18T17:11:59.665Z,22.65
2022-12-18T17:14:30.448Z,21.30
2022-12-18T17:17:20.261Z,21.50
2022-12-18T17:19:45.517Z,21.92
2022-12-18T17:22:12.878Z,21.85
2022-12-18T17:24:40.331Z,24.00
2022-12-18T17:27:14.764Z,26.60
2022-12-18T17:29:48.203Z,24.50
2022-12-18T17:32:17.145Z,24.08
2022-12-18T17:34:44.566Z,23.38
2022-12-18T17:37:11.960Z,23.63
2022-12-18T17:39:40.859Z,22.83
2022-12-18T17:42:15.237Z,22.77
2022-12-18T17:44:44.504Z,23.23
2022-12-18T17:47:13.514Z,25.67
2022-12-18T17:49:41.178Z,24.58
2022-12-18T17:52:08.911Z,26.05
2022-12-18T17:54:39.762Z,24.70
2022-12-18T17:57:07.287Z,22.08
2022-12-18T17:59:34.797Z,23.70
2022-12-18T18:02:02.556Z,23.95
2022-12-18T18:04:30.329Z,24.05
2022-12-18T18:06:58.062Z,23.15
2022-12-18T18:09:25.867Z,27.83
2022-12-18T18:12:11.670Z,23.80
2022-12-18T18:14:39.262Z,21.90
2022-12-18T18:17:06.757Z,22.95
2022-12-18T18:19:34.469Z,22.23
2022-12-18T18:22:02.964Z,22.58
2022-12-18T18:24:30.883Z,23.70
2022-12-18T18:27:00.258Z,23.23
2022-12-18T18:29:31.958Z,25.15
2022-12-18T18:32:00.009Z,25.55
2022-12-18T18:34:30.440Z,24.10
2022-12-18T18:36:58.032Z,22.42
2022-12-18T18:39:26.117Z,24.48
2022-12-18T18:41:54.100Z,24.38
2022-12-18T18:44:24.438Z,24.33
2022-12-18T18:46:55.394Z,24.02
2022-12-18T18:49:26.868Z,22.77
2022-12-18T18:51:55.339Z,24.30
2022-12-18T18:54:22.813Z,21.05
2022-12-18T18:59:38.490Z,20.90
2022-12-18T19:02:06.204Z,22.33
2022-12-18T19:04:34.402Z,22.83
2022-12-18T19:07:02.088Z,21.95
2022-12-18T19:09:29.767Z,20.80
2022-12-18T19:12:16.276Z,20.88
2022-12-18T19:14:44.906Z,20.70
2022-12-18T19:17:12.317Z,21.73
2022-12-18T19:19:39.918Z,23.10
2022-12-18T19:22:07.621Z,23.40
2022-12-18T19:24:36.105Z,22.88
2022-12-18T19:27:03.627Z,22.70
2022-12-18T19:29:31.134Z,22.10
2022-12-18T19:31:58.451Z,22.05
2022-12-18T19:34:25.937Z,20.65
2022-12-18T19:36:59.299Z,20.77
2022-12-18T19:39:27.242Z,21.38
2022-12-18T19:41:54.735Z,21.70
2022-12-18T19:44:22.251Z,20.13
2022-12-18T19:46:52.439Z,20.42
2022-12-18T19:49:21.019Z,20.75
2022-12-18T19:51:50.217Z,21.00
2022-12-18T19:54:18.151Z,21.10
2022-12-18T19:56:46.275Z,21.65
2022-12-18T19:59:14.018Z,22.40
2022-12-18T20:01:41.977Z,22.90
2022-12-18T20:04:09.710Z,21.08
2022-12-18T20:06:48.219Z,21.20
2022-12-18T20:09:15.686Z,20.30
2022-12-18T20:11:43.841Z,20.67
2022-12-18T20:14:12.303Z,18.67
2022-12-18T20:16:39.777Z,21.98
2022-12-18T20:19:08.461Z,20.20
2022-12-18T20:21:36.126Z,20.23
2022-12-18T20:24:03.572Z,20.02
2022-12-18T20:26:30.960Z,19.55
2022-12-18T20:28:58.431Z,19.27
2022-12-18T20:31:25.829Z,20.08
2022-12-18T20:33:54.566Z,19.40
2022-12-18T20:38:57.209Z,19.92
2022-12-18T20:41:37.288Z,19.27
2022-12-18T20:44:22.442Z,19.58
2022-12-18T20:46:53.381Z,19.60
2022-12-18T20:49:20.985Z,20.55
2022-12-18T20:51:54.146Z,21.23
2022-12-18T20:54:22.365Z,19.17
2022-12-18T20:56:50.063Z,19.98
2022-12-18T20:59:17.645Z,21.05
2022-12-18T21:01:48.596Z,19.98
2022-12-18T21:06:53.379Z,19.38
2022-12-18T21:09:25.301Z,19.77
2022-12-18T21:12:14.035Z,20.45
2022-12-18T21:14:42.615Z,18.00
2022-12-18T21:17:10.725Z,19.98
2022-12-18T21:19:38.441Z,19.33
2022-12-18T21:22:05.911Z,20.17
2022-12-18T21:24:33.702Z,19.33
2022-12-18T21:27:02.025Z,20.70
2022-12-18T21:29:29.575Z,19.67
2022-12-18T21:31:56.832Z,20.80
2022-12-18T21:34:28.322Z,20.08
2022-12-18T21:36:57.494Z,21.50
2022-12-18T21:39:26.699Z,21.20
2022-12-18T21:42:12.780Z,21.25
2022-12-18T21:44:42.035Z,20.17
2022-12-18T21:47:22.029Z,19.75
2022-12-18T21:49:52.796Z,20.33
2022-12-18T21:52:28.609Z,20.92
2022-12-18T21:55:08.043Z,21.52
2022-12-18T21:57:36.730Z,18.95
2022-12-18T22:00:05.622Z,20.60
2022-12-18T22:02:39.735Z,20.25
2022-12-18T22:05:07.665Z,20.33
2022-12-18T22:07:34.971Z,19.90
2022-12-18T22:10:02.409Z,18.67
2022-12-18T22:12:38.044Z,20.77
2022-12-18T22:15:12.479Z,19.98
2022-12-18T22:17:49.012Z,20.83
2022-12-18T22:20:16.464Z,20.40
2022-12-18T22:22:43.782Z,20.83
2022-12-18T22:25:11.309Z,20.33
2022-12-18T22:27:38.546Z,19.52
2022-12-18T22:30:06.622Z,20.30
2022-12-18T22:32:35.224Z,20.88
2022-12-18T22:35:09.179Z,20.10
2022-12-18T22:37:37.838Z,19.92
2022-12-18T22:40:07.232Z,21.23
2022-12-18T22:42:34.897Z,21.85
2022-12-18T22:45:02.326Z,21.13
2022-12-18T22:47:30.872Z,22.27
2022-12-18T22:49:58.766Z,21.85
2022-12-18T22:52:25.996Z,20.73
2022-12-18T22:54:54.228Z,22.33
2022-12-18T22:57:22.834Z,21.70
2022-12-18T22:59:50.974Z,20.42
2022-12-18T23:02:19.320Z,22.00
2022-12-18T23:04:47.825Z,22.10
2022-12-18T23:07:16.181Z,21.60
2022-12-18T23:09:44.269Z,23.08
2022-12-18T23:12:20.522Z,21.55
2022-12-18T23:14:47.938Z,21.33
2022-12-18T23:17:15.329Z,21.35
2022-12-18T23:19:48.537Z,22.63
2022-12-18T23:22:17.125Z,23.65
2022-12-18T23:24:44.641Z,22.40
2022-12-18T23:27:12.300Z,21.98
2022-12-18T23:29:40.790Z,22.05
2022-12-18T23:32:08.146Z,21.95
2022-12-18T23:34:35.433Z,22.20
2022-12-18T23:37:03.940Z,21.45
2022-12-18T23:39:31.475Z,22.02
2022-12-18T23:41:59.481Z,21.20
2022-12-18T23:44:26.835Z,21.90
2022-12-18T23:46:54.238Z,21.80
2022-12-18T23:49:21.594Z,22.67
2022-12-18T23:51:49.384Z,23.55
2022-12-18T23:54:16.737Z,22.00
2022-12-18T23:56:44.010Z,22.23
2022-12-18T23:59:11.256Z,21.92
